sensor_id;sensor_type;location;lat;lon;timestamp;P1;durP1;ratioP1;P2;durP2;ratioP2
19482;SDS011;9882;51.166;6.992;2023-11-21T00:00:15;18.05;;;5.95;;
19482;SDS011;9882;51.166;6.992;2023-11-21T00:02:45;13.68;;;5.55;;
19482;SDS011;9882;51.166;6.992;2023-11-21T00:05:14;19.25;;;5.90;;
19482;SDS011;9882;51.166;6.992;2023-11-21T00:07:43;16.52;;;6.10;;
19482;SDS011;9882;51.166;6.992;2023-11-21T00:10:12;15.60;;;5.82;;
19482;SDS011;9882;51.166;6.992;2023-11-21T00:12:43;14.98;;;6.47;;
19482;SDS011;9882;51.166;6.992;2023-11-21T00:15:11;12.48;;;5.88;;
19482;SDS011;9882;51.166;6.992;2023-11-21T00:17:45;10.82;;;5.22;;
19482;SDS011;9882;51.166;6.992;2023-11-21T00:20:15;13.93;;;6.03;;
19482;SDS011;9882;51.166;6.992;2023-11-21T00:22:44;16.67;;;6.32;;
19482;SDS011;9882;51.166;6.992;2023-11-21T00:25:13;13.75;;;5.85;;
19482;SDS011;9882;51.166;6.992;2023-11-21T00:27:44;20.85;;;6.75;;
19482;SDS011;9882;51.166;6.992;2023-11-21T00:30:13;13.95;;;5.70;;
19482;SDS011;9882;51.166;6.992;2023-11-21T00:32:43;18.42;;;6.43;;
19482;SDS011;9882;51.166;6.992;2023-11-21T00:35:13;17.13;;;6.20;;
19482;SDS011;9882;51.166;6.992;2023-11-21T00:37:42;14.07;;;6.13;;
19482;SDS011;9882;51.166;6.992;2023-11-21T00:40:12;16.00;;;6.03;;
19482;SDS011;9882;51.166;6.992;2023-11-21T00:42:42;15.35;;;6.50;;
19482;SDS011;9882;51.166;6.992;2023-11-21T00:45:11;22.13;;;6.22;;
19482;SDS011;9882;51.166;6.992;2023-11-21T00:47:40;16.45;;;6.32;;
19482;SDS011;9882;51.166;6.992;2023-11-21T00:50:09;22.05;;;6.13;;
19482;SDS011;9882;51.166;6.992;2023-11-21T00:52:40;13.07;;;5.82;;
19482;SDS011;9882;51.166;6.992;2023-11-21T00:55:09;20.75;;;6.40;;
19482;SDS011;9882;51.166;6.992;2023-11-21T00:57:38;17.50;;;6.30;;
19482;SDS011;9882;51.166;6.992;2023-11-21T01:00:08;14.45;;;4.82;;
19482;SDS011;9882;51.166;6.992;2023-11-21T01:02:41;12.40;;;5.57;;
19482;SDS011;9882;51.166;6.992;2023-11-21T01:05:10;14.48;;;6.03;;
19482;SDS011;9882;51.166;6.992;2023-11-21T01:07:41;17.92;;;6.55;;
19482;SDS011;9882;51.166;6.992;2023-11-21T01:10:10;12.80;;;5.68;;
19482;SDS011;9882;51.166;6.992;2023-11-21T01:12:39;21.60;;;6.47;;
19482;SDS011;9882;51.166;6.992;2023-11-21T01:15:08;11.65;;;6.25;;
19482;SDS011;9882;51.166;6.992;2023-11-21T01:17:39;15.77;;;6.45;;
19482;SDS011;9882;51.166;6.992;2023-11-21T01:20:08;13.85;;;5.28;;
19482;SDS011;9882;51.166;6.992;2023-11-21T01:22:41;16.85;;;6.32;;
19482;SDS011;9882;51.166;6.992;2023-11-21T01:25:10;13.98;;;5.90;;
19482;SDS011;9882;51.166;6.992;2023-11-21T01:27:42;13.85;;;5.75;;
19482;SDS011;9882;51.166;6.992;2023-11-21T01:30:11;14.40;;;6.00;;
19482;SDS011;9882;51.166;6.992;2023-11-21T01:32:40;17.95;;;6.38;;
19482;SDS011;9882;51.166;6.992;2023-11-21T01:35:09;18.45;;;5.88;;
19482;SDS011;9882;51.166;6.992;2023-11-21T01:37:38;14.43;;;6.47;;
19482;SDS011;9882;51.166;6.992;2023-11-21T01:40:09;13.57;;;5.63;;
19482;SDS011;9882;51.166;6.992;2023-11-21T01:42:41;15.18;;;5.80;;
19482;SDS011;9882;51.166;6.992;2023-11-21T01:45:13;16.67;;;5.80;;
19482;SDS011;9882;51.166;6.992;2023-11-21T01:47:43;12.23;;;5.93;;
19482;SDS011;9882;51.166;6.992;2023-11-21T01:50:14;13.23;;;5.88;;
19482;SDS011;9882;51.166;6.992;2023-11-21T01:52:46;13.70;;;5.50;;
19482;SDS011;9882;51.166;6.992;2023-11-21T01:55:17;18.98;;;6.18;;
19482;SDS011;9882;51.166;6.992;2023-11-21T01:57:53;14.77;;;5.55;;
19482;SDS011;9882;51.166;6.992;2023-11-21T02:00:23;18.30;;;6.10;;
19482;SDS011;9882;51.166;6.992;2023-11-21T02:02:52;13.63;;;5.78;;
19482;SDS011;9882;51.166;6.992;2023-11-21T02:05:21;17.27;;;6.35;;
19482;SDS011;9882;51.166;6.992;2023-11-21T02:07:52;16.08;;;6.30;;
19482;SDS011;9882;51.166;6.992;2023-11-21T02:10:22;18.67;;;5.40;;
19482;SDS011;9882;51.166;6.992;2023-11-21T02:12:51;20.38;;;6.30;;
19482;SDS011;9882;51.166;6.992;2023-11-21T02:15:21;14.93;;;6.20;;
19482;SDS011;9882;51.166;6.992;2023-11-21T02:17:54;14.45;;;6.45;;
19482;SDS011;9882;51.166;6.992;2023-11-21T02:20:25;18.20;;;7.00;;
19482;SDS011;9882;51.166;6.992;2023-11-21T02:22:58;15.63;;;6.78;;
19482;SDS011;9882;51.166;6.992;2023-11-21T02:25:27;17.63;;;6.25;;
19482;SDS011;9882;51.166;6.992;2023-11-21T02:27:59;22.60;;;6.45;;
19482;SDS011;9882;51.166;6.992;2023-11-21T02:30:29;19.50;;;6.63;;
19482;SDS011;9882;51.166;6.992;2023-11-21T02:32:59;17.80;;;6.30;;
19482;SDS011;9882;51.166;6.992;2023-11-21T02:35:29;21.65;;;6.72;;
19482;SDS011;9882;51.166;6.992;2023-11-21T02:37:59;16.70;;;7.00;;
19482;SDS011;9882;51.166;6.992;2023-11-21T02:40:28;20.73;;;6.60;;
19482;SDS011;9882;51.166;6.992;2023-11-21T02:42:59;17.95;;;6.93;;
19482;SDS011;9882;51.166;6.992;2023-11-21T02:45:32;16.13;;;6.93;;
19482;SDS011;9882;51.166;6.992;2023-11-21T02:48:01;15.27;;;6.45;;
19482;SDS011;9882;51.166;6.992;2023-11-21T02:50:31;15.32;;;7.30;;
19482;SDS011;9882;51.166;6.992;2023-11-21T02:53:01;19.33;;;7.05;;
19482;SDS011;9882;51.166;6.992;2023-11-21T02:55:32;18.13;;;6.15;;
19482;SDS011;9882;51.166;6.992;2023-11-21T02:58:02;13.70;;;6.22;;
19482;SDS011;9882;51.166;6.992;2023-11-21T03:00:33;17.98;;;7.00;;
19482;SDS011;9882;51.166;6.992;2023-11-21T03:03:02;15.68;;;6.25;;
19482;SDS011;9882;51.166;6.992;2023-11-21T03:05:31;21.33;;;7.50;;
19482;SDS011;9882;51.166;6.992;2023-11-21T03:08:04;16.88;;;6.68;;
19482;SDS011;9882;51.166;6.992;2023-11-21T03:10:33;21.83;;;7.18;;
19482;SDS011;9882;51.166;6.992;2023-11-21T03:13:02;19.50;;;6.45;;
19482;SDS011;9882;51.166;6.992;2023-11-21T03:15:31;17.50;;;6.65;;
19482;SDS011;9882;51.166;6.992;2023-11-21T03:18:03;15.45;;;6.28;;
19482;SDS011;9882;51.166;6.992;2023-11-21T03:20:33;16.23;;;6.35;;
19482;SDS011;9882;51.166;6.992;2023-11-21T03:23:04;15.35;;;6.32;;
19482;SDS011;9882;51.166;6.992;2023-11-21T03:25:33;18.25;;;6.70;;
19482;SDS011;9882;51.166;6.992;2023-11-21T03:28:02;18.77;;;6.95;;
19482;SDS011;9882;51.166;6.992;2023-11-21T03:30:32;16.73;;;6.97;;
19482;SDS011;9882;51.166;6.992;2023-11-21T03:33:00;15.38;;;6.45;;
19482;SDS011;9882;51.166;6.992;2023-11-21T03:35:29;16.67;;;6.40;;
19482;SDS011;9882;51.166;6.992;2023-11-21T03:37:59;15.05;;;6.45;;
19482;SDS011;9882;51.166;6.992;2023-11-21T03:40:30;19.33;;;6.35;;
19482;SDS011;9882;51.166;6.992;2023-11-21T03:43:01;15.75;;;6.50;;
19482;SDS011;9882;51.166;6.992;2023-11-21T03:45:30;20.92;;;7.05;;
19482;SDS011;9882;51.166;6.992;2023-11-21T03:48:02;23.48;;;7.00;;
19482;SDS011;9882;51.166;6.992;2023-11-21T03:50:31;19.27;;;6.82;;
19482;SDS011;9882;51.166;6.992;2023-11-21T03:53:00;19.77;;;7.13;;
19482;SDS011;9882;51.166;6.992;2023-11-21T03:55:31;18.27;;;6.88;;
19482;SDS011;9882;51.166;6.992;2023-11-21T03:58:00;19.92;;;7.07;;
19482;SDS011;9882;51.166;6.992;2023-11-21T04:00:29;20.52;;;7.70;;
19482;SDS011;9882;51.166;6.992;2023-11-21T04:02:58;17.85;;;6.93;;
19482;SDS011;9882;51.166;6.992;2023-11-21T04:05:27;20.90;;;8.07;;
19482;SDS011;9882;51.166;6.992;2023-11-21T04:07:56;19.55;;;7.30;;
19482;SDS011;9882;51.166;6.992;2023-11-21T04:10:25;20.73;;;7.55;;
19482;SDS011;9882;51.166;6.992;2023-11-21T04:12:55;18.15;;;7.28;;
19482;SDS011;9882;51.166;6.992;2023-11-21T04:15:24;20.05;;;7.80;;
19482;SDS011;9882;51.166;6.992;2023-11-21T04:17:53;19.13;;;7.50;;
19482;SDS011;9882;51.166;6.992;2023-11-21T04:20:23;17.77;;;6.80;;
19482;SDS011;9882;51.166;6.992;2023-11-21T04:22:52;17.00;;;7.05;;
19482;SDS011;9882;51.166;6.992;2023-11-21T04:25:21;21.63;;;7.70;;
19482;SDS011;9882;51.166;6.992;2023-11-21T04:27:55;20.65;;;7.68;;
19482;SDS011;9882;51.166;6.992;2023-11-21T04:30:24;18.63;;;7.25;;
19482;SDS011;9882;51.166;6.992;2023-11-21T04:32:53;17.70;;;7.70;;
19482;SDS011;9882;51.166;6.992;2023-11-21T04:35:25;23.05;;;8.02;;
19482;SDS011;9882;51.166;6.992;2023-11-21T04:37:54;20.52;;;8.13;;
19482;SDS011;9882;51.166;6.992;2023-11-21T04:40:25;24.15;;;8.25;;
19482;SDS011;9882;51.166;6.992;2023-11-21T04:42:55;20.83;;;7.75;;
19482;SDS011;9882;51.166;6.992;2023-11-21T04:45:25;21.83;;;7.93;;
19482;SDS011;9882;51.166;6.992;2023-11-21T04:47:53;19.42;;;7.70;;
19482;SDS011;9882;51.166;6.992;2023-11-21T04:50:23;19.60;;;7.45;;
19482;SDS011;9882;51.166;6.992;2023-11-21T04:52:54;20.13;;;7.47;;
19482;SDS011;9882;51.166;6.992;2023-11-21T04:55:23;25.80;;;7.40;;
19482;SDS011;9882;51.166;6.992;2023-11-21T04:57:56;21.95;;;7.18;;
19482;SDS011;9882;51.166;6.992;2023-11-21T05:00:25;22.55;;;9.02;;
19482;SDS011;9882;51.166;6.992;2023-11-21T05:02:54;21.23;;;7.45;;
19482;SDS011;9882;51.166;6.992;2023-11-21T05:05:22;20.83;;;7.40;;
19482;SDS011;9882;51.166;6.992;2023-11-21T05:07:51;19.38;;;7.70;;
19482;SDS011;9882;51.166;6.992;2023-11-21T05:10:23;21.85;;;8.18;;
19482;SDS011;9882;51.166;6.992;2023-11-21T05:12:52;20.70;;;7.65;;
19482;SDS011;9882;51.166;6.992;2023-11-21T05:15:22;19.48;;;7.15;;
19482;SDS011;9882;51.166;6.992;2023-11-21T05:17:51;20.88;;;7.75;;
19482;SDS011;9882;51.166;6.992;2023-11-21T05:20:20;20.63;;;7.78;;
19482;SDS011;9882;51.166;6.992;2023-11-21T05:22:50;18.92;;;7.13;;
19482;SDS011;9882;51.166;6.992;2023-11-21T05:25:19;22.05;;;8.10;;
19482;SDS011;9882;51.166;6.992;2023-11-21T05:27:48;18.05;;;7.80;;
19482;SDS011;9882;51.166;6.992;2023-11-21T05:30:17;21.05;;;7.53;;
19482;SDS011;9882;51.166;6.992;2023-11-21T05:32:47;20.52;;;7.80;;
19482;SDS011;9882;51.166;6.992;2023-11-21T05:35:16;28.35;;;7.75;;
19482;SDS011;9882;51.166;6.992;2023-11-21T05:37:45;20.30;;;7.68;;
19482;SDS011;9882;51.166;6.992;2023-11-21T05:40:15;25.52;;;8.38;;
19482;SDS011;9882;51.166;6.992;2023-11-21T05:42:49;22.42;;;8.40;;
19482;SDS011;9882;51.166;6.992;2023-11-21T05:45:19;19.67;;;6.57;;
19482;SDS011;9882;51.166;6.992;2023-11-21T05:47:49;21.13;;;7.82;;
19482;SDS011;9882;51.166;6.992;2023-11-21T05:50:18;23.70;;;8.38;;
19482;SDS011;9882;51.166;6.992;2023-11-21T05:52:47;17.05;;;7.13;;
19482;SDS011;9882;51.166;6.992;2023-11-21T05:55:16;23.17;;;7.05;;
19482;SDS011;9882;51.166;6.992;2023-11-21T05:57:45;24.58;;;8.15;;
19482;SDS011;9882;51.166;6.992;2023-11-21T06:00:15;21.38;;;7.57;;
19482;SDS011;9882;51.166;6.992;2023-11-21T06:02:47;22.98;;;7.57;;
19482;SDS011;9882;51.166;6.992;2023-11-21T06:05:19;20.60;;;7.70;;
19482;SDS011;9882;51.166;6.992;2023-11-21T06:07:50;17.08;;;7.55;;
19482;SDS011;9882;51.166;6.992;2023-11-21T06:10:19;16.77;;;7.18;;
19482;SDS011;9882;51.166;6.992;2023-11-21T06:12:51;22.45;;;7.60;;
19482;SDS011;9882;51.166;6.992;2023-11-21T06:15:20;18.48;;;7.57;;
19482;SDS011;9882;51.166;6.992;2023-11-21T06:17:50;19.27;;;8.05;;
19482;SDS011;9882;51.166;6.992;2023-11-21T06:20:22;22.45;;;8.00;;
19482;SDS011;9882;51.166;6.992;2023-11-21T06:22:52;21.45;;;7.65;;
19482;SDS011;9882;51.166;6.992;2023-11-21T06:25:21;22.00;;;8.32;;
19482;SDS011;9882;51.166;6.992;2023-11-21T06:27:50;20.33;;;7.78;;
19482;SDS011;9882;51.166;6.992;2023-11-21T06:30:20;19.88;;;7.28;;
19482;SDS011;9882;51.166;6.992;2023-11-21T06:32:50;19.88;;;7.72;;
19482;SDS011;9882;51.166;6.992;2023-11-21T06:35:19;20.60;;;7.97;;
19482;SDS011;9882;51.166;6.992;2023-11-21T06:37:50;25.10;;;8.10;;
19482;SDS011;9882;51.166;6.992;2023-11-21T06:40:19;19.67;;;7.47;;
19482;SDS011;9882;51.166;6.992;2023-11-21T06:42:48;19.75;;;7.50;;
19482;SDS011;9882;51.166;6.992;2023-11-21T06:45:18;17.23;;;6.95;;
19482;SDS011;9882;51.166;6.992;2023-11-21T06:47:48;24.40;;;8.50;;
19482;SDS011;9882;51.166;6.992;2023-11-21T06:50:18;22.40;;;8.02;;
19482;SDS011;9882;51.166;6.992;2023-11-21T06:52:49;22.45;;;8.32;;
19482;SDS011;9882;51.166;6.992;2023-11-21T06:55:18;18.67;;;7.97;;
19482;SDS011;9882;51.166;6.992;2023-11-21T06:57:47;25.25;;;9.18;;
19482;SDS011;9882;51.166;6.992;2023-11-21T07:00:16;24.10;;;8.80;;
19482;SDS011;9882;51.166;6.992;2023-11-21T07:02:46;21.08;;;8.63;;
19482;SDS011;9882;51.166;6.992;2023-11-21T07:05:15;23.77;;;8.93;;
19482;SDS011;9882;51.166;6.992;2023-11-21T07:07:49;26.70;;;8.85;;
19482;SDS011;9882;51.166;6.992;2023-11-21T07:10:21;22.00;;;8.43;;
19482;SDS011;9882;51.166;6.992;2023-11-21T07:12:50;23.02;;;8.82;;
19482;SDS011;9882;51.166;6.992;2023-11-21T07:15:20;22.75;;;8.65;;
19482;SDS011;9882;51.166;6.992;2023-11-21T07:17:49;25.23;;;9.05;;
19482;SDS011;9882;51.166;6.992;2023-11-21T07:20:18;22.85;;;8.25;;
19482;SDS011;9882;51.166;6.992;2023-11-21T07:22:49;22.05;;;8.90;;
19482;SDS011;9882;51.166;6.992;2023-11-21T07:25:18;27.15;;;9.07;;
19482;SDS011;9882;51.166;6.992;2023-11-21T07:27:49;24.10;;;9.02;;
19482;SDS011;9882;51.166;6.992;2023-11-21T07:30:17;23.02;;;8.57;;
19482;SDS011;9882;51.166;6.992;2023-11-21T07:32:46;27.83;;;9.30;;
19482;SDS011;9882;51.166;6.992;2023-11-21T07:35:15;21.73;;;8.05;;
19482;SDS011;9882;51.166;6.992;2023-11-21T07:37:44;21.50;;;8.23;;
19482;SDS011;9882;51.166;6.992;2023-11-21T07:40:16;21.83;;;8.75;;
19482;SDS011;9882;51.166;6.992;2023-11-21T07:42:45;22.05;;;8.73;;
19482;SDS011;9882;51.166;6.992;2023-11-21T07:45:13;23.38;;;8.18;;
19482;SDS011;9882;51.166;6.992;2023-11-21T07:47:42;22.90;;;8.73;;
19482;SDS011;9882;51.166;6.992;2023-11-21T07:50:11;25.50;;;9.32;;
19482;SDS011;9882;51.166;6.992;2023-11-21T07:52:40;24.52;;;8.63;;
19482;SDS011;9882;51.166;6.992;2023-11-21T07:55:09;24.23;;;9.02;;
19482;SDS011;9882;51.166;6.992;2023-11-21T07:57:39;26.85;;;9.13;;
19482;SDS011;9882;51.166;6.992;2023-11-21T08:00:09;24.73;;;8.70;;
19482;SDS011;9882;51.166;6.992;2023-11-21T08:02:39;27.98;;;9.23;;
19482;SDS011;9882;51.166;6.992;2023-11-21T08:05:09;26.13;;;9.88;;
19482;SDS011;9882;51.166;6.992;2023-11-21T08:07:39;23.27;;;9.25;;
19482;SDS011;9882;51.166;6.992;2023-11-21T08:10:08;22.08;;;9.55;;
19482;SDS011;9882;51.166;6.992;2023-11-21T08:12:39;24.13;;;9.50;;
19482;SDS011;9882;51.166;6.992;2023-11-21T08:15:10;22.48;;;9.55;;
19482;SDS011;9882;51.166;6.992;2023-11-21T08:17:38;24.70;;;9.43;;
19482;SDS011;9882;51.166;6.992;2023-11-21T08:20:08;26.60;;;10.20;;
19482;SDS011;9882;51.166;6.992;2023-11-21T08:22:38;52.60;;;14.32;;
19482;SDS011;9882;51.166;6.992;2023-11-21T08:25:08;30.27;;;10.50;;
19482;SDS011;9882;51.166;6.992;2023-11-21T08:27:37;27.95;;;10.30;;
19482;SDS011;9882;51.166;6.992;2023-11-21T08:30:09;27.85;;;9.73;;
19482;SDS011;9882;51.166;6.992;2023-11-21T08:32:39;33.85;;;11.13;;
19482;SDS011;9882;51.166;6.992;2023-11-21T08:35:08;26.85;;;11.02;;
19482;SDS011;9882;51.166;6.992;2023-11-21T08:37:38;31.05;;;10.40;;
19482;SDS011;9882;51.166;6.992;2023-11-21T08:40:08;27.73;;;10.98;;
19482;SDS011;9882;51.166;6.992;2023-11-21T08:42:39;33.28;;;11.57;;
19482;SDS011;9882;51.166;6.992;2023-11-21T08:45:11;26.95;;;10.82;;
19482;SDS011;9882;51.166;6.992;2023-11-21T08:47:41;48.10;;;15.73;;
19482;SDS011;9882;51.166;6.992;2023-11-21T08:50:11;32.67;;;11.80;;
19482;SDS011;9882;51.166;6.992;2023-11-21T08:52:40;62.30;;;15.80;;
19482;SDS011;9882;51.166;6.992;2023-11-21T08:55:10;26.48;;;11.23;;
19482;SDS011;9882;51.166;6.992;2023-11-21T08:57:41;30.35;;;11.82;;
19482;SDS011;9882;51.166;6.992;2023-11-21T09:00:14;49.80;;;17.65;;
19482;SDS011;9882;51.166;6.992;2023-11-21T09:02:44;33.53;;;11.98;;
19482;SDS011;9882;51.166;6.992;2023-11-21T09:05:14;41.65;;;13.95;;
19482;SDS011;9882;51.166;6.992;2023-11-21T09:07:44;35.42;;;12.05;;
19482;SDS011;9882;51.166;6.992;2023-11-21T09:10:16;50.58;;;15.30;;
19482;SDS011;9882;51.166;6.992;2023-11-21T09:12:45;36.95;;;12.38;;
19482;SDS011;9882;51.166;6.992;2023-11-21T09:15:15;32.25;;;12.15;;
19482;SDS011;9882;51.166;6.992;2023-11-21T09:17:44;38.95;;;15.18;;
19482;SDS011;9882;51.166;6.992;2023-11-21T09:20:13;44.15;;;15.60;;
19482;SDS011;9882;51.166;6.992;2023-11-21T09:22:42;41.88;;;16.92;;
19482;SDS011;9882;51.166;6.992;2023-11-21T09:25:12;55.38;;;16.20;;
19482;SDS011;9882;51.166;6.992;2023-11-21T09:27:41;47.05;;;16.40;;
19482;SDS011;9882;51.166;6.992;2023-11-21T09:30:10;51.33;;;16.40;;
19482;SDS011;9882;51.166;6.992;2023-11-21T09:32:43;54.60;;;15.77;;
19482;SDS011;9882;51.166;6.992;2023-11-21T09:35:12;51.90;;;17.52;;
19482;SDS011;9882;51.166;6.992;2023-11-21T09:37:43;51.30;;;16.90;;
19482;SDS011;9882;51.166;6.992;2023-11-21T09:40:14;35.85;;;13.20;;
19482;SDS011;9882;51.166;6.992;2023-11-21T09:42:46;44.88;;;16.92;;
19482;SDS011;9882;51.166;6.992;2023-11-21T09:45:21;35.97;;;13.45;;
19482;SDS011;9882;51.166;6.992;2023-11-21T09:47:55;41.33;;;13.50;;
19482;SDS011;9882;51.166;6.992;2023-11-21T09:50:25;30.83;;;12.65;;
19482;SDS011;9882;51.166;6.992;2023-11-21T09:52:55;50.33;;;16.30;;
19482;SDS011;9882;51.166;6.992;2023-11-21T09:55:29;36.80;;;15.90;;
19482;SDS011;9882;51.166;6.992;2023-11-21T09:58:03;34.35;;;13.00;;
19482;SDS011;9882;51.166;6.992;2023-11-21T10:00:34;31.67;;;12.77;;
19482;SDS011;9882;51.166;6.992;2023-11-21T10:03:05;37.90;;;16.98;;
19482;SDS011;9882;51.166;6.992;2023-11-21T10:05:35;31.75;;;13.00;;
19482;SDS011;9882;51.166;6.992;2023-11-21T10:08:06;38.92;;;14.25;;
19482;SDS011;9882;51.166;6.992;2023-11-21T10:10:37;46.97;;;15.93;;
19482;SDS011;9882;51.166;6.992;2023-11-21T10:13:08;40.53;;;15.50;;
19482;SDS011;9882;51.166;6.992;2023-11-21T10:15:43;27.05;;;11.35;;
19482;SDS011;9882;51.166;6.992;2023-11-21T10:18:17;45.78;;;16.75;;
19482;SDS011;9882;51.166;6.992;2023-11-21T10:20:46;42.60;;;14.95;;
19482;SDS011;9882;51.166;6.992;2023-11-21T10:23:19;36.38;;;14.25;;
19482;SDS011;9882;51.166;6.992;2023-11-21T10:25:49;50.65;;;16.38;;
19482;SDS011;9882;51.166;6.992;2023-11-21T10:28:19;57.55;;;18.10;;
19482;SDS011;9882;51.166;6.992;2023-11-21T10:30:48;36.30;;;12.52;;
19482;SDS011;9882;51.166;6.992;2023-11-21T10:33:20;55.78;;;16.63;;
19482;SDS011;9882;51.166;6.992;2023-11-21T10:35:56;48.63;;;16.50;;
19482;SDS011;9882;51.166;6.992;2023-11-21T10:38:32;46.85;;;16.63;;
19482;SDS011;9882;51.166;6.992;2023-11-21T10:41:11;35.78;;;14.13;;
19482;SDS011;9882;51.166;6.992;2023-11-21T10:43:43;40.65;;;14.13;;
19482;SDS011;9882;51.166;6.992;2023-11-21T10:46:12;48.22;;;17.08;;
19482;SDS011;9882;51.166;6.992;2023-11-21T10:48:43;39.80;;;14.60;;
19482;SDS011;9882;51.166;6.992;2023-11-21T10:51:13;43.00;;;15.90;;
19482;SDS011;9882;51.166;6.992;2023-11-21T10:53:43;36.58;;;13.65;;
19482;SDS011;9882;51.166;6.992;2023-11-21T10:56:13;46.13;;;15.70;;
19482;SDS011;9882;51.166;6.992;2023-11-21T10:58:44;39.03;;;14.80;;
19482;SDS011;9882;51.166;6.992;2023-11-21T11:01:14;44.22;;;17.23;;
19482;SDS011;9882;51.166;6.992;2023-11-21T11:03:47;45.20;;;17.75;;
19482;SDS011;9882;51.166;6.992;2023-11-21T11:06:16;45.08;;;17.92;;
19482;SDS011;9882;51.166;6.992;2023-11-21T11:08:46;40.47;;;17.67;;
19482;SDS011;9882;51.166;6.992;2023-11-21T11:11:16;37.05;;;14.73;;
19482;SDS011;9882;51.166;6.992;2023-11-21T11:13:45;33.17;;;14.20;;
19482;SDS011;9882;51.166;6.992;2023-11-21T11:16:14;46.50;;;16.33;;
19482;SDS011;9882;51.166;6.992;2023-11-21T11:18:46;41.80;;;15.27;;
19482;SDS011;9882;51.166;6.992;2023-11-21T11:21:19;45.75;;;16.42;;
19482;SDS011;9882;51.166;6.992;2023-11-21T11:24:08;43.75;;;17.30;;
19482;SDS011;9882;51.166;6.992;2023-11-21T11:27:01;40.28;;;14.00;;
19482;SDS011;9882;51.166;6.992;2023-11-21T11:29:46;40.85;;;15.93;;
19482;SDS011;9882;51.166;6.992;2023-11-21T11:32:34;49.60;;;17.33;;
19482;SDS011;9882;51.166;6.992;2023-11-21T11:35:14;47.08;;;17.70;;
19482;SDS011;9882;51.166;6.992;2023-11-21T11:37:52;52.35;;;17.63;;
19482;SDS011;9882;51.166;6.992;2023-11-21T11:40:21;44.13;;;17.92;;
19482;SDS011;9882;51.166;6.992;2023-11-21T11:42:55;47.38;;;17.25;;
19482;SDS011;9882;51.166;6.992;2023-11-21T11:45:25;53.35;;;18.92;;
19482;SDS011;9882;51.166;6.992;2023-11-21T11:48:02;45.22;;;16.63;;
19482;SDS011;9882;51.166;6.992;2023-11-21T11:50:35;52.08;;;17.15;;
19482;SDS011;9882;51.166;6.992;2023-11-21T11:53:13;45.63;;;15.70;;
19482;SDS011;9882;51.166;6.992;2023-11-21T11:55:43;39.00;;;15.80;;
19482;SDS011;9882;51.166;6.992;2023-11-21T11:58:12;48.40;;;16.38;;
19482;SDS011;9882;51.166;6.992;2023-11-21T12:00:40;41.22;;;15.13;;
19482;SDS011;9882;51.166;6.992;2023-11-21T12:03:13;51.85;;;18.05;;
19482;SDS011;9882;51.166;6.992;2023-11-21T12:05:43;43.63;;;16.60;;
19482;SDS011;9882;51.166;6.992;2023-11-21T12:08:16;45.58;;;17.70;;
19482;SDS011;9882;51.166;6.992;2023-11-21T12:10:49;51.85;;;19.13;;
19482;SDS011;9882;51.166;6.992;2023-11-21T12:13:21;51.30;;;17.65;;
19482;SDS011;9882;51.166;6.992;2023-11-21T12:15:50;43.28;;;16.15;;
19482;SDS011;9882;51.166;6.992;2023-11-21T12:18:21;51.42;;;17.05;;
19482;SDS011;9882;51.166;6.992;2023-11-21T12:20:55;52.00;;;18.65;;
19482;SDS011;9882;51.166;6.992;2023-11-21T12:23:24;46.10;;;17.25;;
19482;SDS011;9882;51.166;6.992;2023-11-21T12:25:53;48.88;;;17.67;;
19482;SDS011;9882;51.166;6.992;2023-11-21T12:28:26;52.53;;;17.73;;
19482;SDS011;9882;51.166;6.992;2023-11-21T12:31:12;44.15;;;16.65;;
19482;SDS011;9882;51.166;6.992;2023-11-21T12:33:44;55.70;;;18.05;;
19482;SDS011;9882;51.166;6.992;2023-11-21T12:36:15;46.58;;;17.20;;
19482;SDS011;9882;51.166;6.992;2023-11-21T12:38:44;45.88;;;18.00;;
19482;SDS011;9882;51.166;6.992;2023-11-21T12:41:13;57.90;;;18.30;;
19482;SDS011;9882;51.166;6.992;2023-11-21T12:43:44;56.45;;;17.85;;
19482;SDS011;9882;51.166;6.992;2023-11-21T12:46:14;49.92;;;16.92;;
19482;SDS011;9882;51.166;6.992;2023-11-21T12:48:44;49.67;;;17.85;;
19482;SDS011;9882;51.166;6.992;2023-11-21T12:51:15;41.75;;;16.80;;
19482;SDS011;9882;51.166;6.992;2023-11-21T12:53:45;59.83;;;19.27;;
19482;SDS011;9882;51.166;6.992;2023-11-21T12:56:14;58.63;;;18.05;;
19482;SDS011;9882;51.166;6.992;2023-11-21T12:58:45;65.93;;;18.50;;
19482;SDS011;9882;51.166;6.992;2023-11-21T13:01:15;39.03;;;15.77;;
19482;SDS011;9882;51.166;6.992;2023-11-21T13:03:46;52.45;;;15.07;;
19482;SDS011;9882;51.166;6.992;2023-11-21T13:06:19;43.67;;;17.10;;
19482;SDS011;9882;51.166;6.992;2023-11-21T13:08:51;51.50;;;16.13;;
19482;SDS011;9882;51.166;6.992;2023-11-21T13:11:20;50.95;;;16.52;;
19482;SDS011;9882;51.166;6.992;2023-11-21T13:13:51;45.88;;;16.75;;
19482;SDS011;9882;51.166;6.992;2023-11-21T13:16:21;49.67;;;17.45;;
19482;SDS011;9882;51.166;6.992;2023-11-21T13:18:50;44.88;;;17.38;;
19482;SDS011;9882;51.166;6.992;2023-11-21T13:21:20;51.55;;;17.73;;
19482;SDS011;9882;51.166;6.992;2023-11-21T13:23:49;49.78;;;17.77;;
19482;SDS011;9882;51.166;6.992;2023-11-21T13:26:20;53.83;;;17.30;;
19482;SDS011;9882;51.166;6.992;2023-11-21T13:28:54;42.35;;;16.65;;
19482;SDS011;9882;51.166;6.992;2023-11-21T13:31:23;40.13;;;15.82;;
19482;SDS011;9882;51.166;6.992;2023-11-21T13:33:58;47.00;;;17.30;;
19482;SDS011;9882;51.166;6.992;2023-11-21T13:36:34;42.60;;;16.27;;
19482;SDS011;9882;51.166;6.992;2023-11-21T13:39:04;50.25;;;16.45;;
19482;SDS011;9882;51.166;6.992;2023-11-21T13:41:34;44.83;;;15.88;;
19482;SDS011;9882;51.166;6.992;2023-11-21T13:44:05;54.72;;;17.38;;
19482;SDS011;9882;51.166;6.992;2023-11-21T13:46:43;42.10;;;14.82;;
19482;SDS011;9882;51.166;6.992;2023-11-21T13:49:13;48.75;;;16.88;;
19482;SDS011;9882;51.166;6.992;2023-11-21T13:51:44;55.03;;;17.90;;
19482;SDS011;9882;51.166;6.992;2023-11-21T13:54:16;47.83;;;17.27;;
19482;SDS011;9882;51.166;6.992;2023-11-21T13:56:47;44.10;;;15.55;;
19482;SDS011;9882;51.166;6.992;2023-11-21T13:59:16;55.20;;;16.67;;
19482;SDS011;9882;51.166;6.992;2023-11-21T14:01:50;49.00;;;16.58;;
19482;SDS011;9882;51.166;6.992;2023-11-21T14:04:24;45.67;;;17.20;;
19482;SDS011;9882;51.166;6.992;2023-11-21T14:07:15;49.72;;;16.70;;
19482;SDS011;9882;51.166;6.992;2023-11-21T14:10:04;53.25;;;16.45;;
19482;SDS011;9882;51.166;6.992;2023-11-21T14:12:34;49.20;;;17.23;;
19482;SDS011;9882;51.166;6.992;2023-11-21T14:15:06;42.60;;;15.45;;
19482;SDS011;9882;51.166;6.992;2023-11-21T14:17:44;49.88;;;18.83;;
19482;SDS011;9882;51.166;6.992;2023-11-21T14:20:12;41.72;;;15.52;;
19482;SDS011;9882;51.166;6.992;2023-11-21T14:22:44;52.15;;;18.33;;
19482;SDS011;9882;51.166;6.992;2023-11-21T14:25:14;65.75;;;19.17;;
19482;SDS011;9882;51.166;6.992;2023-11-21T14:27:44;57.13;;;18.67;;
19482;SDS011;9882;51.166;6.992;2023-11-21T14:30:15;46.53;;;15.93;;
19482;SDS011;9882;51.166;6.992;2023-11-21T14:32:48;38.30;;;15.25;;
19482;SDS011;9882;51.166;6.992;2023-11-21T14:35:17;42.20;;;16.10;;
19482;SDS011;9882;51.166;6.992;2023-11-21T14:37:48;36.63;;;14.45;;
19482;SDS011;9882;51.166;6.992;2023-11-21T14:40:17;39.90;;;15.20;;
19482;SDS011;9882;51.166;6.992;2023-11-21T14:42:49;42.42;;;16.25;;
19482;SDS011;9882;51.166;6.992;2023-11-21T14:45:23;30.60;;;12.55;;
19482;SDS011;9882;51.166;6.992;2023-11-21T14:47:53;36.55;;;12.18;;
19482;SDS011;9882;51.166;6.992;2023-11-21T14:50:33;30.10;;;11.10;;
19482;SDS011;9882;51.166;6.992;2023-11-21T14:53:37;25.80;;;9.90;;
19482;SDS011;9882;51.166;6.992;2023-11-21T14:56:20;25.77;;;9.43;;
19482;SDS011;9882;51.166;6.992;2023-11-21T14:58:53;36.80;;;14.18;;
19482;SDS011;9882;51.166;6.992;2023-11-21T15:01:23;32.25;;;12.95;;
19482;SDS011;9882;51.166;6.992;2023-11-21T15:04:10;31.85;;;11.73;;